Archival Weather

Chicago O'Hare International

Chicago, Illinois (KORD)

Report from: Thursday, May 11, 2023 12:51 PM CDT
Current time: Sunday, February 25, 2024 4:10 PM CST

Current weather – Weather history – Daily summaries
Weather forecast

Temperature27.2°C (81.0°F)
Heat index26.6°C (79.8°F)
Dew point4.4°C (39.9°F)
Winds 8 kts (4.1 m/s, 9.2 mph) South-Southeast (150°)
Visibility10 mi. (16.1 km)
Clouds Few clouds 15,000 ft. (4,572 m)
Scattered clouds 30,000 ft. (9,144 m)
Altimeter30.07 in.Hg (1018 mB)
Relative humidity23 %
Density altitude1,377 ft. (420 m)
Sea-level pressure101.8 kPa (1018 mB, 30.06 in.Hg)
Max temp last 6 hours27.2°C (81.0°F)
Min temp last 6 hours15.6°C (60.1°F)
Remarks Automated weather observing station with precipitation discriminator
Pressure falling more quickly
Flight conditions Visual Meteorological Conditions
Raw dataKORD 111751Z 15008KT 10SM FEW150 SCT300 27/04 A3007 RMK AO2 SLP179 T02720044 10272 20156 58014
An error has occurred. This application may no longer respond until reloaded. Reload 🗙